createdAt,value
2023-03-22T00:00:03.084Z,101045.28
2023-03-22T00:03:06.713Z,101049.28
2023-03-22T00:06:08.939Z,101046.78
2023-03-22T00:09:11.008Z,101050.97
2023-03-22T00:12:12.849Z,101058.06
2023-03-22T00:15:15.609Z,101053.38
2023-03-22T00:18:17.710Z,101048.69
2023-03-22T00:21:20.309Z,101062.53
2023-03-22T00:24:23.401Z,101057.47
2023-03-22T00:27:27.050Z,101051.09
2023-03-22T00:30:28.874Z,101050.34
2023-03-22T00:33:31.545Z,101049.78
2023-03-22T00:36:33.470Z,101045.28
2023-03-22T00:39:35.494Z,101049.41
2023-03-22T00:42:37.819Z,101048.53
2023-03-22T00:45:41.143Z,101048.22
2023-03-22T00:48:43.457Z,101054.69
2023-03-22T00:51:45.324Z,101060.16
2023-03-22T00:54:47.829Z,101052.72
2023-03-22T00:57:49.989Z,101059.69
2023-03-22T01:00:52.226Z,101045.03
2023-03-22T01:03:54.531Z,101063.09
2023-03-22T01:07:03.855Z,101046.34
2023-03-22T01:10:06.413Z,101050.66
2023-03-22T01:13:09.292Z,101049.47
2023-03-22T01:16:11.369Z,101047.63
2023-03-22T01:19:13.648Z,101044.78
2023-03-22T01:22:15.761Z,101050.53
2023-03-22T01:25:17.814Z,101053.97
2023-03-22T01:28:19.811Z,101063.34
2023-03-22T01:31:21.791Z,101047.00
2023-03-22T01:34:23.797Z,101054.13
2023-03-22T01:37:27.894Z,101061.22
2023-03-22T01:40:29.910Z,101054.00
2023-03-22T01:43:32.222Z,101059.06
2023-03-22T01:46:34.862Z,101057.38
2023-03-22T01:49:37.639Z,101047.94
2023-03-22T01:52:40.807Z,101054.91
2023-03-22T01:55:53.960Z,101049.25
2023-03-22T01:59:01.873Z,101049.59
2023-03-22T02:02:19.184Z,101047.72
2023-03-22T02:05:28.704Z,101051.59
2023-03-22T02:08:36.424Z,101044.53
2023-03-22T02:11:49.756Z,101046.88
2023-03-22T02:15:05.398Z,101051.31
2023-03-22T02:18:39.448Z,101057.03
2023-03-22T02:22:00.603Z,101055.91
2023-03-22T02:25:21.838Z,101060.63
2023-03-22T02:28:37.466Z,101063.16
2023-03-22T02:31:45.408Z,101074.81
2023-03-22T02:35:05.471Z,101065.53
2023-03-22T02:38:16.743Z,101071.09
2023-03-22T02:41:21.999Z,101078.19
2023-03-22T02:44:24.106Z,101072.09
2023-03-22T02:47:35.360Z,101075.06
2023-03-22T02:50:54.744Z,101077.25
2023-03-22T02:54:15.460Z,101080.44
2023-03-22T02:57:25.091Z,101084.53
2023-03-22T03:00:30.675Z,101080.47
2023-03-22T03:03:33.573Z,101082.16
2023-03-22T03:06:46.374Z,101088.63
2023-03-22T03:09:49.270Z,101084.56
2023-03-22T03:12:51.681Z,101074.66
2023-03-22T03:15:57.330Z,101094.72
2023-03-22T03:19:03.722Z,101087.16
2023-03-22T03:22:13.406Z,101080.03
2023-03-22T03:25:27.611Z,101082.22
2023-03-22T03:28:38.356Z,101089.66
2023-03-22T03:31:44.195Z,101092.03
2023-03-22T03:34:49.801Z,101088.28
2023-03-22T03:37:53.991Z,101093.53
2023-03-22T03:40:59.170Z,101095.34
2023-03-22T03:44:01.389Z,101099.75
2023-03-22T03:47:04.132Z,101103.66
2023-03-22T03:50:06.439Z,101106.88
2023-03-22T03:53:08.533Z,101105.53
2023-03-22T03:56:10.589Z,101106.22
2023-03-22T03:59:18.060Z,101108.25
2023-03-22T04:02:23.005Z,101107.56
2023-03-22T04:05:27.285Z,101111.25
2023-03-22T04:08:29.503Z,101109.06
2023-03-22T04:11:31.863Z,101103.97
2023-03-22T04:14:36.976Z,101110.38
2023-03-22T04:17:46.743Z,101116.28
2023-03-22T04:20:53.754Z,101107.69
2023-03-22T04:23:57.721Z,101119.34
2023-03-22T04:27:01.514Z,101121.34
2023-03-22T04:30:11.257Z,101126.41
2023-03-22T04:33:49.983Z,101138.41
2023-03-22T04:37:05.004Z,101140.78
2023-03-22T04:40:21.845Z,101141.25
2023-03-22T04:43:44.825Z,101148.50
2023-03-22T04:46:48.911Z,101150.59
2023-03-22T04:49:51.119Z,101145.31
2023-03-22T04:52:53.190Z,101151.94
2023-03-22T04:55:57.283Z,101147.84
2023-03-22T04:59:01.558Z,101145.97
2023-03-22T05:02:03.755Z,101146.97
2023-03-22T05:05:12.974Z,101149.00
2023-03-22T05:08:16.002Z,101155.22
2023-03-22T05:11:22.144Z,101154.72
2023-03-22T05:14:37.447Z,101164.50
2023-03-22T05:17:40.828Z,101169.59
2023-03-22T05:20:43.537Z,101178.19
2023-03-22T05:23:52.229Z,101183.59
2023-03-22T05:26:55.127Z,101187.19
2023-03-22T05:30:02.243Z,101182.31
2023-03-22T05:33:22.081Z,101185.53
2023-03-22T05:36:29.812Z,101192.03
2023-03-22T05:39:57.793Z,101195.03
2023-03-22T05:43:11.105Z,101193.03
2023-03-22T05:46:17.550Z,101187.63
2023-03-22T05:49:39.729Z,101190.72
2023-03-22T05:52:43.062Z,101198.31
2023-03-22T05:56:13.996Z,101201.72
2023-03-22T05:59:17.902Z,101209.31
2023-03-22T06:02:21.528Z,101205.91
2023-03-22T06:05:23.853Z,101200.13
2023-03-22T06:08:27.335Z,101202.94
2023-03-22T06:11:30.660Z,101208.50
2023-03-22T06:14:33.108Z,101212.28
2023-03-22T06:18:01.126Z,101218.03
2023-03-22T06:21:06.876Z,101212.94
2023-03-22T06:24:09.084Z,101219.63
2023-03-22T06:27:11.391Z,101219.91
2023-03-22T06:30:15.526Z,101219.50
2023-03-22T06:33:38.862Z,101217.75
2023-03-22T06:36:53.663Z,101224.81
2023-03-22T06:40:02.702Z,101226.91
2023-03-22T06:43:07.205Z,101227.25
2023-03-22T06:46:11.808Z,101225.59
2023-03-22T06:49:21.978Z,101239.50
2023-03-22T06:52:26.544Z,101240.81
2023-03-22T06:55:28.798Z,101234.63
2023-03-22T06:58:30.908Z,101227.97
2023-03-22T07:01:33.322Z,101234.44
2023-03-22T07:04:35.856Z,101237.97
2023-03-22T07:07:38.029Z,101237.53
2023-03-22T07:10:40.346Z,101244.78
2023-03-22T07:13:42.738Z,101245.34
2023-03-22T07:16:49.780Z,101237.75
2023-03-22T07:19:53.590Z,101248.16
2023-03-22T07:22:57.839Z,101244.97
2023-03-22T07:26:03.127Z,101249.47
2023-03-22T07:29:08.876Z,101241.75
2023-03-22T07:32:11.522Z,101247.91
2023-03-22T07:35:34.809Z,101242.69
2023-03-22T07:38:37.820Z,101235.19
2023-03-22T07:45:37.745Z,101230.47
2023-03-22T07:49:02.822Z,101229.81
2023-03-22T07:52:23.176Z,101235.34
2023-03-22T07:55:25.453Z,101223.50
2023-03-22T07:58:27.597Z,101237.00
2023-03-22T08:01:32.103Z,101228.66
2023-03-22T08:05:45.560Z,101228.66
2023-03-22T08:08:49.712Z,101230.06
2023-03-22T08:11:51.676Z,101232.88
2023-03-22T08:14:54.349Z,101231.94
2023-03-22T08:18:00.760Z,101231.66
2023-03-22T08:21:10.930Z,101215.84
2023-03-22T08:24:14.369Z,101226.69
2023-03-22T08:27:46.060Z,101217.34
2023-03-22T08:30:49.622Z,101213.22
2023-03-22T08:33:51.774Z,101220.88
2023-03-22T08:36:53.709Z,101219.84
2023-03-22T08:39:55.873Z,101215.09
2023-03-22T08:43:06.945Z,101215.56
2023-03-22T08:46:10.375Z,101213.53
2023-03-22T08:49:12.939Z,101210.72
2023-03-22T08:52:24.059Z,101207.91
2023-03-22T08:55:32.272Z,101207.72
2023-03-22T08:58:46.894Z,101213.41
2023-03-22T09:02:09.257Z,101211.63
2023-03-22T09:05:13.691Z,101214.22
2023-03-22T09:08:19.698Z,101222.28
2023-03-22T09:11:30.607Z,101213.22
2023-03-22T09:14:33.842Z,101206.09
2023-03-22T09:17:36.560Z,101206.78
2023-03-22T09:20:40.322Z,101206.25
2023-03-22T09:23:47.987Z,101200.66
2023-03-22T09:26:54.200Z,101203.38
2023-03-22T09:29:56.432Z,101202.75
2023-03-22T09:33:02.269Z,101199.91
2023-03-22T09:36:06.011Z,101192.22
2023-03-22T09:39:10.153Z,101197.84
2023-03-22T09:42:21.327Z,101201.47
2023-03-22T09:45:43.876Z,101188.81
2023-03-22T09:48:48.400Z,101194.66
2023-03-22T09:51:52.675Z,101183.56
2023-03-22T09:54:54.905Z,101180.31
2023-03-22T09:58:02.635Z,101182.66
2023-03-22T10:01:24.852Z,101174.44
2023-03-22T10:04:59.418Z,101174.28
2023-03-22T10:08:01.560Z,101173.25
2023-03-22T10:11:07.685Z,101169.81
2023-03-22T10:14:24.743Z,101169.97
2023-03-22T10:17:27.329Z,101162.03
2023-03-22T10:20:37.120Z,101160.44
2023-03-22T10:23:39.532Z,101162.00
2023-03-22T10:26:42.602Z,101166.25
2023-03-22T10:30:04.756Z,101168.31
2023-03-22T10:33:21.467Z,101158.94
2023-03-22T10:36:26.509Z,101156.69
2023-03-22T10:39:38.467Z,101156.78
2023-03-22T10:42:43.290Z,101153.38
2023-03-22T10:45:45.517Z,101160.31
2023-03-22T10:48:50.030Z,101148.84
2023-03-22T10:51:54.829Z,101139.00
2023-03-22T10:55:01.295Z,101133.84
2023-03-22T10:58:12.790Z,101131.41
2023-03-22T11:01:17.390Z,101138.47
2023-03-22T11:04:19.408Z,101129.91
2023-03-22T11:07:32.222Z,101132.44
2023-03-22T11:10:34.308Z,101126.16
2023-03-22T11:13:36.741Z,101130.13
2023-03-22T11:16:53.018Z,101127.56
2023-03-22T11:20:07.836Z,101122.56
2023-03-22T11:23:17.904Z,101125.63
2023-03-22T11:29:49.706Z,101112.72
2023-03-22T11:33:02.320Z,101113.38
2023-03-22T11:36:16.230Z,101114.25
2023-03-22T11:39:19.024Z,101108.69
2023-03-22T11:42:21.577Z,101088.63
2023-03-22T11:45:35.491Z,101086.38
2023-03-22T11:48:37.908Z,101087.03
2023-03-22T11:51:41.069Z,101084.75
2023-03-22T11:54:44.346Z,101083.31
2023-03-22T11:57:46.801Z,101084.75
2023-03-22T12:00:52.654Z,101084.06
2023-03-22T12:03:56.703Z,101074.00
2023-03-22T12:07:00.736Z,101079.25
2023-03-22T12:10:28.876Z,101075.88
2023-03-22T12:13:52.309Z,101066.81
2023-03-22T12:17:01.587Z,101059.47
2023-03-22T12:20:23.460Z,101067.81
2023-03-22T12:23:29.325Z,101064.47
2023-03-22T12:26:34.420Z,101063.63
2023-03-22T12:29:36.755Z,101060.91
2023-03-22T12:32:44.772Z,101060.88
2023-03-22T12:35:47.572Z,101061.06
2023-03-22T12:38:58.095Z,101058.16
2023-03-22T12:42:03.137Z,101064.88
2023-03-22T12:45:12.884Z,101063.19
2023-03-22T12:48:21.576Z,101058.63
2023-03-22T12:51:23.905Z,101059.88
2023-03-22T12:54:26.518Z,101048.72
2023-03-22T12:57:30.131Z,101054.38
2023-03-22T13:00:38.500Z,101042.66
2023-03-22T13:03:48.016Z,101048.72
2023-03-22T13:06:53.717Z,101046.00
2023-03-22T13:09:55.825Z,101045.41
2023-03-22T13:13:17.862Z,101042.66
2023-03-22T13:16:23.062Z,101045.19
2023-03-22T13:19:38.718Z,101041.19
2023-03-22T13:22:43.599Z,101035.53
2023-03-22T13:26:00.246Z,101044.31
2023-03-22T13:29:08.078Z,101036.16
2023-03-22T13:32:30.741Z,101033.66
2023-03-22T13:35:46.758Z,101034.50
2023-03-22T13:38:54.744Z,101037.66
2023-03-22T13:42:15.610Z,101031.16
2023-03-22T13:45:34.265Z,101025.09
2023-03-22T13:48:41.460Z,101020.91
2023-03-22T13:51:44.249Z,101027.81
2023-03-22T13:54:49.135Z,101022.78
2023-03-22T13:57:59.249Z,101018.59
2023-03-22T14:01:01.314Z,101019.41
2023-03-22T14:04:12.490Z,101015.06
2023-03-22T14:07:21.916Z,101016.50
2023-03-22T14:10:28.353Z,101021.75
2023-03-22T14:14:02.856Z,101015.50
2023-03-22T14:17:37.188Z,101016.28
2023-03-22T14:20:40.231Z,101013.75
